createdAt,value
2019-05-09T00:01:39.468Z,99571.12
2019-05-09T00:04:13.953Z,99567.78
2019-05-09T00:06:46.950Z,99570.48
2019-05-09T00:09:20.151Z,99570.48
2019-05-09T00:11:53.163Z,99574.86
2019-05-09T00:14:25.994Z,99566.90
2019-05-09T00:16:58.968Z,99566.90
2019-05-09T00:19:33.353Z,99574.31
2019-05-09T00:22:06.510Z,99574.31
2019-05-09T00:24:39.364Z,99585.94
2019-05-09T00:27:14.138Z,99584.09
2019-05-09T00:29:47.259Z,99588.48
2019-05-09T00:32:20.636Z,99588.48
2019-05-09T00:34:53.832Z,99585.29
2019-05-09T00:37:26.736Z,99582.13
2019-05-09T00:39:59.678Z,99582.13
2019-05-09T00:42:33.360Z,99588.87
2019-05-09T00:45:06.478Z,99580.95
2019-05-09T00:47:39.696Z,99585.33
2019-05-09T00:50:13.242Z,99585.53
2019-05-09T00:52:46.142Z,99588.06
2019-05-09T00:55:19.002Z,99588.06
2019-05-09T00:57:53.437Z,99592.11
2019-05-09T01:00:26.545Z,99589.73
2019-05-09T01:02:59.786Z,99586.19
2019-05-09T01:05:35.476Z,99586.19
2019-05-09T01:08:08.485Z,99588.39
2019-05-09T01:10:43.577Z,99585.86
2019-05-09T01:13:16.148Z,99584.52
2019-05-09T01:15:49.317Z,99590.07
2019-05-09T01:18:23.731Z,99588.56
2019-05-09T01:20:56.961Z,99588.22
2019-05-09T01:23:29.941Z,99589.56
2019-05-09T01:26:03.861Z,99589.56
2019-05-09T01:28:37.370Z,99589.58
2019-05-09T01:31:10.310Z,99594.97
2019-05-09T01:33:44.000Z,99594.46
2019-05-09T01:36:16.944Z,99594.12
2019-05-09T01:38:49.938Z,99597.16
2019-05-09T01:41:30.315Z,99597.83
2019-05-09T01:43:57.952Z,99595.63
2019-05-09T01:46:30.823Z,99595.80
2019-05-09T01:49:04.093Z,99594.28
2019-05-09T01:51:36.965Z,99592.93
2019-05-09T01:54:09.885Z,99594.63
2019-05-09T01:56:43.203Z,99599.17
2019-05-09T01:59:16.193Z,99602.20
2019-05-09T02:01:49.058Z,99598.32
2019-05-09T02:04:24.190Z,99600.51
2019-05-09T02:06:56.990Z,99602.88
2019-05-09T02:09:29.934Z,99608.62
2019-05-09T02:12:03.911Z,99608.62
2019-05-09T02:14:37.243Z,99600.20
2019-05-09T02:17:10.109Z,99601.38
2019-05-09T02:19:43.915Z,99605.09
2019-05-09T02:22:17.266Z,99606.27
2019-05-09T02:24:50.212Z,99612.51
2019-05-09T02:27:23.825Z,99601.55
2019-05-09T02:29:56.814Z,99613.34
2019-05-09T02:32:30.243Z,99611.81
2019-05-09T02:35:04.886Z,99611.31
2019-05-09T02:37:38.865Z,99607.94
2019-05-09T02:40:12.456Z,99610.13
2019-05-09T02:42:48.721Z,99610.45
2019-05-09T02:45:20.421Z,99599.00
2019-05-09T02:47:53.366Z,99599.00
2019-05-09T02:50:28.511Z,99600.17
2019-05-09T02:53:00.929Z,99594.27
2019-05-09T02:55:34.253Z,99601.20
2019-05-09T02:58:08.251Z,99599.67
2019-05-09T03:00:41.424Z,99599.67
2019-05-09T03:03:14.289Z,99588.38
2019-05-09T03:05:48.756Z,99588.38
2019-05-09T03:08:21.925Z,99595.13
2019-05-09T03:10:54.895Z,99594.28
2019-05-09T03:13:29.098Z,99592.61
2019-05-09T03:16:02.292Z,99595.78
2019-05-09T03:18:35.154Z,99593.77
2019-05-09T03:21:09.188Z,99588.55
2019-05-09T03:23:42.306Z,99584.00
2019-05-09T03:26:15.277Z,99596.47
2019-05-09T03:28:49.271Z,99594.45
2019-05-09T03:31:22.677Z,99591.92
2019-05-09T03:33:59.152Z,99588.89
2019-05-09T03:36:30.267Z,99591.59
2019-05-09T03:39:04.985Z,99582.31
2019-05-09T03:41:39.494Z,99586.53
2019-05-09T03:44:12.685Z,99587.54
2019-05-09T03:46:47.666Z,99588.20
2019-05-09T03:49:20.221Z,99586.03
2019-05-09T03:51:53.146Z,99584.34
2019-05-09T03:54:28.308Z,99574.23
2019-05-09T03:57:00.884Z,99577.09
2019-05-09T03:59:33.745Z,99579.96
2019-05-09T04:02:09.837Z,99574.56
2019-05-09T04:04:42.009Z,99576.27
2019-05-09T04:07:14.926Z,99571.20
2019-05-09T04:09:48.044Z,99580.64
2019-05-09T04:12:21.277Z,99588.22
2019-05-09T04:14:54.410Z,99588.23
2019-05-09T04:17:28.087Z,99583.17
2019-05-09T04:20:00.986Z,99584.50
2019-05-09T04:22:33.896Z,99591.24
2019-05-09T04:25:07.990Z,99588.20
2019-05-09T04:27:41.029Z,99591.08
2019-05-09T04:30:13.969Z,99591.08
2019-05-09T04:32:48.160Z,99595.98
2019-05-09T04:35:21.432Z,99599.52
2019-05-09T04:37:54.356Z,99601.03
2019-05-09T04:40:31.786Z,99604.41
2019-05-09T04:43:11.951Z,99605.77
2019-05-09T04:45:38.793Z,99605.09
2019-05-09T04:48:13.192Z,99605.09
2019-05-09T04:50:47.824Z,99603.06
2019-05-09T04:53:21.260Z,99606.77
2019-05-09T04:55:54.172Z,99615.88
2019-05-09T04:58:27.447Z,99610.48
2019-05-09T05:01:00.617Z,99612.83
2019-05-09T05:03:33.599Z,99613.31
2019-05-09T05:06:07.682Z,99616.17
2019-05-09T05:08:40.562Z,99619.38
2019-05-09T05:11:13.419Z,99619.57
2019-05-09T05:13:48.147Z,99619.57
2019-05-09T05:16:21.390Z,99619.23
2019-05-09T05:18:54.290Z,99619.23
2019-05-09T05:21:28.628Z,99626.33
2019-05-09T05:24:01.656Z,99626.33
2019-05-09T05:26:34.686Z,99632.40
2019-05-09T05:29:08.526Z,99633.41
2019-05-09T05:31:41.628Z,99627.16
2019-05-09T05:34:14.773Z,99627.16
2019-05-09T05:36:47.776Z,99627.66
2019-05-09T05:39:20.717Z,99627.66
2019-05-09T05:41:53.982Z,99628.15
2019-05-09T05:44:28.278Z,99626.30
2019-05-09T05:47:01.485Z,99629.34
2019-05-09T05:49:34.779Z,99639.47
2019-05-09T05:52:08.203Z,99639.47
2019-05-09T05:54:41.975Z,99636.94
2019-05-09T05:57:17.547Z,99642.50
2019-05-09T05:59:49.806Z,99644.16
2019-05-09T06:02:23.118Z,99649.75
2019-05-09T06:04:57.859Z,99650.27
2019-05-09T06:07:31.025Z,99650.78
2019-05-09T06:10:04.629Z,99643.84
2019-05-09T06:12:38.204Z,99656.84
2019-05-09T06:15:12.051Z,99650.53
2019-05-09T06:17:45.111Z,99659.84
2019-05-09T06:20:18.267Z,99659.84
2019-05-09T06:22:51.164Z,99663.62
2019-05-09T06:25:24.559Z,99663.11
2019-05-09T06:27:58.383Z,99668.01
2019-05-09T06:30:31.967Z,99670.72
2019-05-09T06:33:05.426Z,99670.72
2019-05-09T06:35:38.473Z,99673.52
2019-05-09T06:38:11.512Z,99673.52
2019-05-09T06:40:44.786Z,99678.30
2019-05-09T06:43:18.371Z,99671.54
2019-05-09T06:45:51.483Z,99671.54
2019-05-09T06:48:24.391Z,99676.88
2019-05-09T06:50:57.744Z,99674.70
2019-05-09T06:53:30.706Z,99674.70
2019-05-09T06:56:03.988Z,99676.06
2019-05-09T06:58:38.363Z,99675.74
2019-05-09T07:01:11.786Z,99675.05
2019-05-09T07:03:44.851Z,99673.14
2019-05-09T07:06:17.905Z,99669.62
2019-05-09T07:08:50.938Z,99675.45
2019-05-09T07:11:23.906Z,99675.45
2019-05-09T07:13:57.882Z,99681.50
2019-05-09T07:16:31.026Z,99673.09
2019-05-09T07:19:04.007Z,99679.56
2019-05-09T07:21:37.558Z,99687.82
2019-05-09T07:24:10.600Z,99687.82
2019-05-09T07:26:43.546Z,99687.23
2019-05-09T07:29:17.874Z,99687.23
2019-05-09T07:31:51.158Z,99689.46
2019-05-09T07:34:24.197Z,99696.59
2019-05-09T07:36:58.170Z,99693.16
2019-05-09T07:39:31.706Z,99693.16
2019-05-09T07:42:04.706Z,99702.00
2019-05-09T07:44:46.263Z,99702.09
2019-05-09T07:47:12.607Z,99697.80
2019-05-09T07:49:48.079Z,99705.54
2019-05-09T07:52:20.552Z,99698.16
2019-05-09T07:54:53.423Z,99702.39
2019-05-09T07:57:28.551Z,99702.83
2019-05-09T08:00:01.323Z,99702.83
2019-05-09T08:02:34.304Z,99709.23
2019-05-09T08:05:08.581Z,99705.42
2019-05-09T08:07:41.700Z,99710.23
2019-05-09T08:10:14.809Z,99724.56
2019-05-09T08:12:48.329Z,99724.56
2019-05-09T08:15:21.451Z,99727.45
2019-05-09T08:17:54.354Z,99727.45
2019-05-09T08:20:27.906Z,99731.79
2019-05-09T08:23:02.442Z,99723.94
2019-05-09T08:25:38.061Z,99732.97
2019-05-09T08:28:10.490Z,99741.45
2019-05-09T08:30:43.821Z,99745.44
2019-05-09T08:33:18.376Z,99745.91
2019-05-09T08:35:52.687Z,99739.52
2019-05-09T08:38:27.973Z,99749.36
2019-05-09T08:41:00.599Z,99741.56
2019-05-09T08:43:34.631Z,99741.56
2019-05-09T08:46:08.842Z,99737.77
2019-05-09T08:48:41.872Z,99755.94
2019-05-09T08:51:14.894Z,99742.24
2019-05-09T08:53:48.319Z,99749.30
2019-05-09T08:56:21.416Z,99739.94
2019-05-09T08:58:57.937Z,99730.92
2019-05-09T09:01:47.627Z,99735.36
2019-05-09T09:04:04.053Z,99734.67
2019-05-09T09:06:38.034Z,99725.52
2019-05-09T09:09:10.990Z,99735.69
2019-05-09T09:11:44.453Z,99731.67
2019-05-09T09:14:18.471Z,99747.16
2019-05-09T09:16:51.755Z,99748.86
2019-05-09T09:19:24.895Z,99743.44
2019-05-09T09:22:00.538Z,99748.02
2019-05-09T09:24:32.434Z,99755.28
2019-05-09T09:27:07.515Z,99754.95
2019-05-09T09:29:40.099Z,99764.42
2019-05-09T09:32:13.084Z,99751.04
2019-05-09T09:34:48.476Z,99751.04
2019-05-09T09:37:22.030Z,99757.31
2019-05-09T09:39:54.987Z,99763.33
2019-05-09T09:42:28.402Z,99772.16
2019-05-09T09:45:02.311Z,99766.48
2019-05-09T09:47:38.860Z,99764.83
2019-05-09T09:50:10.512Z,99760.56
2019-05-09T09:52:43.523Z,99754.20
2019-05-09T09:55:18.490Z,99757.92
2019-05-09T09:57:51.762Z,99735.84
2019-05-09T10:00:38.227Z,99735.84
2019-05-09T10:03:11.469Z,99741.09
2019-05-09T10:05:44.553Z,99730.92
2019-05-09T10:08:18.346Z,99738.70
2019-05-09T10:10:51.866Z,99736.89
2019-05-09T10:13:24.795Z,99729.94
2019-05-09T10:15:58.847Z,99745.80
2019-05-09T10:18:31.866Z,99739.39
2019-05-09T10:21:04.982Z,99756.70
2019-05-09T10:23:38.027Z,99754.41
2019-05-09T10:26:11.072Z,99742.56
2019-05-09T10:28:45.482Z,99735.30
2019-05-09T10:31:19.072Z,99743.77
2019-05-09T10:33:51.959Z,99718.95
2019-05-09T10:36:24.880Z,99718.95
2019-05-09T10:38:58.573Z,99724.78
2019-05-09T10:41:31.566Z,99734.92
2019-05-09T10:44:04.518Z,99734.92
2019-05-09T10:46:51.422Z,99740.70
2019-05-09T10:49:12.228Z,99741.92
2019-05-09T10:51:45.167Z,99732.77
2019-05-09T10:54:18.653Z,99743.16
2019-05-09T10:56:51.968Z,99749.20
2019-05-09T10:59:24.980Z,99749.14
2019-05-09T11:01:58.271Z,99743.42
2019-05-09T11:04:31.200Z,99744.98
2019-05-09T11:07:04.226Z,99757.72
2019-05-09T11:09:39.076Z,99759.88
2019-05-09T11:12:12.224Z,99751.34
2019-05-09T11:14:45.094Z,99749.08
2019-05-09T11:17:21.599Z,99752.92
2019-05-09T11:19:53.099Z,99749.68
2019-05-09T11:22:28.907Z,99747.83
2019-05-09T11:25:00.971Z,99733.82
2019-05-09T11:27:33.856Z,99746.13
2019-05-09T11:30:08.391Z,99744.00
2019-05-09T11:32:41.408Z,99755.94
2019-05-09T11:35:14.377Z,99743.95
2019-05-09T11:37:48.066Z,99746.27
2019-05-09T11:40:21.031Z,99745.71
2019-05-09T11:42:53.907Z,99749.82
2019-05-09T11:48:00.660Z,99752.30
2019-05-09T11:50:33.557Z,99757.00
2019-05-09T11:53:08.829Z,99757.39
2019-05-09T11:55:43.326Z,99786.48
2019-05-09T11:58:18.047Z,99774.83
2019-05-09T12:00:50.392Z,99768.97
2019-05-09T12:03:23.604Z,99766.56
2019-05-09T12:05:58.298Z,99758.13
2019-05-09T12:08:31.011Z,99751.52
2019-05-09T12:11:03.907Z,99745.70
2019-05-09T12:13:38.047Z,99741.95
2019-05-09T12:16:10.913Z,99758.63
2019-05-09T12:18:43.882Z,99758.63
2019-05-09T12:21:19.136Z,99762.62
2019-05-09T12:23:51.449Z,99757.73
2019-05-09T12:26:24.267Z,99764.50
2019-05-09T12:28:57.989Z,99767.00
2019-05-09T12:31:30.998Z,99767.00
2019-05-09T12:34:03.977Z,99767.13
2019-05-09T12:36:39.864Z,99778.45
2019-05-09T12:39:11.685Z,99778.45
2019-05-09T12:41:44.530Z,99790.06
2019-05-09T12:44:18.291Z,99790.06
2019-05-09T12:46:52.005Z,99798.73
2019-05-09T12:49:25.147Z,99801.36
2019-05-09T12:51:58.799Z,99801.36
2019-05-09T12:54:31.881Z,99800.75
2019-05-09T12:57:04.707Z,99782.52
2019-05-09T12:59:46.422Z,99774.02
2019-05-09T13:02:12.163Z,99774.02
2019-05-09T13:04:47.498Z,99781.53
2019-05-09T13:07:20.053Z,99783.45
2019-05-09T13:09:53.059Z,99788.01
2019-05-09T13:12:28.932Z,99788.63
2019-05-09T13:15:00.541Z,99791.81
2019-05-09T13:17:33.366Z,99794.73
2019-05-09T13:20:07.954Z,99794.73
2019-05-09T13:22:40.979Z,99785.05
2019-05-09T13:25:14.050Z,99789.59
2019-05-09T13:27:47.890Z,99796.64
2019-05-09T13:30:21.145Z,99798.06
2019-05-09T13:32:53.967Z,99803.95
2019-05-09T13:35:27.784Z,99810.67
2019-05-09T13:38:00.784Z,99810.34
2019-05-09T13:40:33.741Z,99814.37
2019-05-09T13:43:08.970Z,99811.68
2019-05-09T13:45:41.238Z,99816.59
2019-05-09T13:48:28.131Z,99816.59
2019-05-09T13:50:48.680Z,99824.16
2019-05-09T13:53:21.521Z,99824.16
2019-05-09T13:55:55.623Z,99824.28
2019-05-09T13:58:28.937Z,99809.16
2019-05-09T14:01:02.663Z,99809.16
2019-05-09T14:03:35.699Z,99810.86
2019-05-09T14:06:09.144Z,99826.41
2019-05-09T14:08:42.070Z,99824.70
2019-05-09T14:11:14.984Z,99824.70
2019-05-09T14:13:48.801Z,99820.92
2019-05-09T14:16:22.540Z,99820.92
2019-05-09T14:18:58.854Z,99826.88
2019-05-09T14:21:30.238Z,99826.88
2019-05-09T14:24:14.058Z,99835.33
2019-05-09T14:26:37.797Z,99838.31
2019-05-09T14:29:12.955Z,99847.66
2019-05-09T14:31:45.309Z,99847.16
2019-05-09T14:34:19.675Z,99847.16
2019-05-09T14:36:52.793Z,99845.28
2019-05-09T14:39:27.683Z,99846.54
2019-05-09T14:42:00.325Z,99870.11
2019-05-09T14:44:33.151Z,99863.39
2019-05-09T14:47:08.093Z,99870.41
2019-05-09T14:49:44.501Z,99870.41
2019-05-09T14:52:15.247Z,99869.39
2019-05-09T14:54:48.393Z,99870.61
2019-05-09T14:57:21.408Z,99877.89
2019-05-09T14:59:54.242Z,99877.89
2019-05-09T15:02:27.124Z,99885.89
2019-05-09T15:05:00.027Z,99884.82
2019-05-09T15:07:33.040Z,99884.82
2019-05-09T15:10:08.641Z,99879.95
2019-05-09T15:12:41.021Z,99881.45
2019-05-09T15:15:14.099Z,99881.16
2019-05-09T15:17:49.294Z,99881.16
2019-05-09T15:20:21.683Z,99905.80
2019-05-09T15:22:54.566Z,99906.92
2019-05-09T15:25:28.306Z,99906.92
2019-05-09T15:28:01.264Z,99911.16
2019-05-09T15:30:34.106Z,99909.70
2019-05-09T15:33:08.373Z,99901.75
2019-05-09T15:35:41.423Z,99887.74
2019-05-09T15:38:14.582Z,99889.17
2019-05-09T15:40:48.266Z,99887.80
2019-05-09T15:43:21.298Z,99887.80
2019-05-09T15:45:54.137Z,99894.72
2019-05-09T15:48:27.571Z,99895.20
2019-05-09T15:51:00.613Z,99896.80
2019-05-09T15:53:33.505Z,99886.10
2019-05-09T15:56:08.028Z,99893.56
2019-05-09T15:58:40.979Z,99901.48
2019-05-09T16:01:14.163Z,99909.55
2019-05-09T16:03:48.527Z,99904.69
2019-05-09T16:06:21.906Z,99909.28
2019-05-09T16:08:54.856Z,99905.73
2019-05-09T16:11:28.586Z,99914.92
2019-05-09T16:14:03.176Z,99910.52
2019-05-09T16:16:38.553Z,99912.06
2019-05-09T16:19:11.493Z,99909.23
2019-05-09T16:21:44.362Z,99908.13
2019-05-09T16:24:18.732Z,99908.13
2019-05-09T16:26:51.870Z,99909.14
2019-05-09T16:29:25.108Z,99911.98
2019-05-09T16:31:58.279Z,99908.06
2019-05-09T16:34:31.183Z,99912.96
2019-05-09T16:37:04.275Z,99916.39
2019-05-09T16:39:37.969Z,99916.92
2019-05-09T16:42:11.103Z,99916.92
2019-05-09T16:44:44.059Z,99925.85
2019-05-09T16:47:21.603Z,99934.36
2019-05-09T16:49:51.520Z,99932.59
2019-05-09T16:52:24.438Z,99938.47
2019-05-09T16:54:58.502Z,99934.19
2019-05-09T16:57:31.618Z,99934.33
2019-05-09T17:00:07.917Z,99934.52
2019-05-09T17:02:40.320Z,99934.52
2019-05-09T17:05:13.511Z,99933.12
2019-05-09T17:07:47.646Z,99933.12
2019-05-09T17:10:21.338Z,99941.28
2019-05-09T17:12:54.265Z,99946.25
2019-05-09T17:15:29.187Z,99941.47
2019-05-09T17:18:01.989Z,99941.47
2019-05-09T17:20:35.006Z,99942.95
2019-05-09T17:23:13.765Z,99943.34
2019-05-09T17:25:42.590Z,99947.23
2019-05-09T17:28:17.666Z,99955.06
2019-05-09T17:30:50.206Z,99960.95
2019-05-09T17:33:23.197Z,99960.95
2019-05-09T17:35:57.753Z,99963.94
2019-05-09T17:38:30.903Z,99963.27
2019-05-09T17:41:04.374Z,99968.95
2019-05-09T17:43:38.371Z,99972.41
2019-05-09T17:46:11.496Z,99976.95
2019-05-09T17:48:44.566Z,99968.94
2019-05-09T17:51:32.343Z,99977.01
2019-05-09T17:53:52.674Z,99978.53
2019-05-09T17:56:25.690Z,99984.20
2019-05-09T17:58:58.647Z,99988.31
2019-05-09T18:01:31.743Z,99990.80
2019-05-09T18:04:04.922Z,99984.86
2019-05-09T18:06:38.169Z,99990.28
2019-05-09T18:09:11.289Z,99990.28
2019-05-09T18:11:44.282Z,99993.02
2019-05-09T18:14:18.470Z,99993.02
2019-05-09T18:16:51.930Z,99995.66
2019-05-09T18:19:24.929Z,99995.66
2019-05-09T18:21:58.047Z,100002.74
2019-05-09T18:24:31.385Z,100004.84
2019-05-09T18:27:04.796Z,100003.05
2019-05-09T18:29:38.154Z,100007.69
2019-05-09T18:32:11.305Z,100008.48
2019-05-09T18:34:44.268Z,100008.48
2019-05-09T18:37:17.407Z,100016.59
2019-05-09T18:39:50.360Z,100017.53
2019-05-09T18:42:23.318Z,100014.77
2019-05-09T18:44:56.601Z,100014.77
2019-05-09T18:47:29.934Z,100022.08
2019-05-09T18:50:02.959Z,100016.61
2019-05-09T18:52:35.992Z,100015.91
2019-05-09T18:55:09.729Z,100023.35
2019-05-09T18:57:42.707Z,100026.05
2019-05-09T19:00:17.202Z,100038.28
2019-05-09T19:02:50.565Z,100040.53
2019-05-09T19:05:23.514Z,100048.42
2019-05-09T19:07:56.892Z,100047.65
2019-05-09T19:10:29.736Z,100048.47
2019-05-09T19:13:02.725Z,100060.73
2019-05-09T19:15:35.780Z,100060.73
2019-05-09T19:18:08.825Z,100063.98
2019-05-09T19:20:41.900Z,100063.98
2019-05-09T19:23:14.852Z,100064.31
2019-05-09T19:25:47.726Z,100065.56
2019-05-09T19:28:23.974Z,100062.92
2019-05-09T19:30:55.628Z,100062.92
2019-05-09T19:33:29.291Z,100075.30
2019-05-09T19:36:02.253Z,100078.89
2019-05-09T19:38:35.185Z,100082.17
2019-05-09T19:41:08.413Z,100098.45
2019-05-09T19:43:41.354Z,100094.93
2019-05-09T19:46:14.941Z,100095.97
2019-05-09T19:48:47.934Z,100087.47
2019-05-09T19:51:20.920Z,100087.47
2019-05-09T19:53:54.546Z,100092.42
2019-05-09T19:56:27.604Z,100096.20
2019-05-09T19:59:00.527Z,100104.55
2019-05-09T20:01:33.483Z,100107.97
2019-05-09T20:04:06.651Z,100107.97
2019-05-09T20:06:39.864Z,100112.73
2019-05-09T20:09:12.849Z,100112.73
2019-05-09T20:11:45.741Z,100111.86
2019-05-09T20:14:18.889Z,100117.24
2019-05-09T20:16:53.896Z,100116.07
2019-05-09T20:19:26.844Z,100115.88
2019-05-09T20:22:00.168Z,100126.98
2019-05-09T20:24:33.271Z,100126.98
2019-05-09T20:27:06.229Z,100121.23
2019-05-09T20:29:39.345Z,100125.25
2019-05-09T20:32:12.366Z,100136.53
2019-05-09T20:34:45.302Z,100136.53
2019-05-09T20:37:18.410Z,100138.87
2019-05-09T20:39:51.385Z,100143.09
2019-05-09T20:42:24.441Z,100143.09
2019-05-09T20:44:57.432Z,100144.91
2019-05-09T20:47:30.359Z,100145.42
2019-05-09T20:50:03.697Z,100153.87
2019-05-09T20:52:36.762Z,100156.59
2019-05-09T20:55:10.244Z,100165.06
2019-05-09T20:57:43.249Z,100166.09
2019-05-09T21:00:17.848Z,100166.09
2019-05-09T21:02:50.764Z,100168.45
2019-05-09T21:05:23.968Z,100181.59
2019-05-09T21:07:56.855Z,100181.59
2019-05-09T21:10:29.805Z,100179.55
2019-05-09T21:13:02.873Z,100185.30
2019-05-09T21:15:35.952Z,100178.06
2019-05-09T21:18:08.997Z,100183.33
2019-05-09T21:20:42.437Z,100186.74
2019-05-09T21:23:24.382Z,100186.74
2019-05-09T21:25:50.027Z,100188.46
2019-05-09T21:28:23.091Z,100184.90
2019-05-09T21:30:56.094Z,100200.20
2019-05-09T21:33:29.098Z,100200.20
2019-05-09T21:36:02.132Z,100201.10
2019-05-09T21:38:35.072Z,100205.53
2019-05-09T21:41:08.082Z,100205.53
2019-05-09T21:43:41.075Z,100210.50
2019-05-09T21:46:14.110Z,100214.40
2019-05-09T21:48:47.019Z,100215.12
2019-05-09T21:51:19.958Z,100220.69
2019-05-09T21:53:52.858Z,100222.56
2019-05-09T21:56:26.373Z,100233.75
2019-05-09T21:58:59.395Z,100233.75
2019-05-09T22:01:32.479Z,100233.08
2019-05-09T22:04:05.605Z,100238.48
2019-05-09T22:06:38.692Z,100236.11
2019-05-09T22:09:11.751Z,100248.80
2019-05-09T22:11:44.873Z,100244.37
2019-05-09T22:14:17.865Z,100244.37
2019-05-09T22:16:52.461Z,100253.16
2019-05-09T22:19:25.375Z,100261.28
2019-05-09T22:21:58.335Z,100261.28
2019-05-09T22:24:31.308Z,100264.48
2019-05-09T22:27:04.585Z,100258.20
2019-05-09T22:29:37.636Z,100257.18
2019-05-09T22:32:10.655Z,100257.18
2019-05-09T22:34:43.575Z,100257.86
2019-05-09T22:37:16.497Z,100253.48
2019-05-09T22:39:49.795Z,100247.39
2019-05-09T22:42:23.117Z,100243.36
2019-05-09T22:44:56.140Z,100243.36
2019-05-09T22:47:29.112Z,100246.92
2019-05-09T22:50:02.556Z,100245.43
2019-05-09T22:52:35.579Z,100244.27
2019-05-09T22:55:08.848Z,100244.27
2019-05-09T22:57:42.148Z,100240.89
2019-05-09T23:00:15.493Z,100242.59
2019-05-09T23:02:48.482Z,100248.68
2019-05-09T23:05:21.495Z,100248.52
2019-05-09T23:07:54.581Z,100247.00
2019-05-09T23:10:27.558Z,100238.04
2019-05-09T23:13:00.786Z,100238.04
2019-05-09T23:15:33.727Z,100242.61
2019-05-09T23:18:07.108Z,100243.12
2019-05-09T23:20:40.144Z,100243.80
2019-05-09T23:23:13.174Z,100247.36
2019-05-09T23:25:46.092Z,100247.36
2019-05-09T23:28:19.195Z,100251.92
2019-05-09T23:30:52.620Z,100251.92
2019-05-09T23:33:25.690Z,100249.03
2019-05-09T23:35:58.827Z,100261.88
2019-05-09T23:38:31.898Z,100265.92
2019-05-09T23:41:04.790Z,100270.13
2019-05-09T23:43:37.680Z,100268.09
2019-05-09T23:46:10.881Z,100275.88
2019-05-09T23:48:43.834Z,100274.17
2019-05-09T23:51:17.509Z,100274.17
2019-05-09T23:53:50.617Z,100267.87
2019-05-09T23:56:23.583Z,100270.77
2019-05-09T23:58:56.588Z,100272.13
